Time;durP1;ratioP1;P1;durP2;ratioP2;P2;SDS_P1;SDS_P2;PMS_P1;PMS_P2;Temp;Humidity;BMP_temperature;BMP_pressure;BME280_temperature;BME280_humidity;BME280_pressure;Samples;Min_cycle;Max_cycle;Signal;HPM_P1;HPM_P2
2022/09/04 00:02:38;;;;;;;7.68;2.65;;;;;;;10.84;59.65;100006.47;5035246;28;20073;-69
2022/09/04 00:05:21;;;;;;;8.48;3.05;;;;;;;10.80;58.94;100008.25;5035162;28;20049;-69
2022/09/04 00:07:48;;;;;;;4.47;2.45;;;;;;;10.78;59.71;100010.56;5035231;28;20052;-69
2022/09/04 00:10:20;;;;;;;4.45;2.60;;;;;;;10.78;59.30;100011.34;5052829;28;20083;-70
2022/09/04 00:13:05;;;;;;;5.38;2.30;;;;;;;10.80;59.88;100013.81;5020803;28;20093;-69
2022/09/04 00:15:42;;;;;;;5.45;2.90;;;;;;;10.76;59.87;100010.88;5055091;28;20055;-69
2022/09/04 00:18:16;;;;;;;5.70;2.47;;;;;;;10.78;59.79;100019.72;5054572;28;20051;-74
2022/09/04 00:21:01;;;;;;;6.40;2.40;;;;;;;10.75;59.74;100019.56;5054577;28;20052;-70
2022/09/04 00:23:36;;;;;;;4.60;2.22;;;;;;;10.70;60.02;100023.31;5053589;28;20106;-74
2022/09/04 00:26:10;;;;;;;15.32;2.58;;;;;;;10.71;60.41;100024.09;5055673;28;20049;-70
2022/09/04 00:28:43;;;;;;;6.55;2.22;;;;;;;10.65;60.16;100006.75;5054812;28;20083;-69
2022/09/04 00:31:24;;;;;;;6.18;2.35;;;;;;;10.66;60.14;100016.72;5054376;28;20064;-75
2022/09/04 00:34:06;;;;;;;7.35;2.67;;;;;;;10.59;61.32;100009.97;5054336;28;20080;-70
2022/09/04 00:36:37;;;;;;;7.97;2.72;;;;;;;10.58;61.09;100008.34;5054455;28;20051;-70
2022/09/04 00:39:15;;;;;;;4.93;2.35;;;;;;;10.60;60.72;100017.22;5054522;28;20056;-75
2022/09/04 00:41:45;;;;;;;8.05;2.83;;;;;;;10.59;60.48;100019.16;5054018;28;20044;-76
2022/09/04 00:44:24;;;;;;;4.35;2.53;;;;;;;10.58;60.58;100013.91;5054703;28;20136;-71
2022/09/04 00:47:09;;;;;;;6.50;2.72;;;;;;;10.53;60.41;100012.09;5054196;28;20136;-68
2022/09/04 00:49:50;;;;;;;11.07;3.47;;;;;;;10.50;61.00;100009.13;5054160;28;20393;-68
2022/09/04 00:52:20;;;;;;;13.32;2.55;;;;;;;10.46;61.13;100016.47;5060832;28;20052;-72
2022/09/04 00:54:59;;;;;;;5.72;3.55;;;;;;;10.44;61.06;100004.84;5074352;28;20041;-73
2022/09/04 00:57:41;;;;;;;4.27;2.13;;;;;;;10.45;61.47;100003.72;5074353;28;20058;-73
2022/09/04 01:00:14;;;;;;;12.02;2.60;;;;;;;10.42;61.92;100010.72;5074535;28;20048;-69
2022/09/04 01:02:48;;;;;;;7.18;2.70;;;;;;;10.38;62.04;100008.91;5074100;28;20151;-72
2022/09/04 01:05:49;;;;;;;4.68;2.35;;;;;;;10.37;61.74;100012.84;5074073;28;20135;-69
2022/09/04 01:08:39;;;;;;;5.22;2.25;;;;;;;10.36;61.46;100014.00;5074454;28;20059;-74
2022/09/04 01:11:32;;;;;;;4.32;2.25;;;;;;;10.31;62.32;100014.13;5071900;28;20066;-69
2022/09/04 01:14:28;;;;;;;5.13;2.40;;;;;;;10.29;61.93;100019.16;5047355;28;20056;-69
2022/09/04 01:17:37;;;;;;;6.55;2.85;;;;;;;10.24;62.33;100020.13;5053974;28;20091;-69
2022/09/04 01:20:36;;;;;;;7.18;2.67;;;;;;;10.23;62.32;100014.88;5045845;28;20059;-70
2022/09/04 01:23:24;;;;;;;7.93;2.60;;;;;;;10.25;62.22;100020.97;5033782;28;20048;-73
2022/09/04 01:26:12;;;;;;;5.13;2.40;;;;;;;10.26;62.59;100023.41;5033965;28;20055;-73
2022/09/04 01:29:06;;;;;;;4.78;2.45;;;;;;;10.26;62.50;100022.59;5034262;28;20053;-70
2022/09/04 01:32:18;;;;;;;10.48;2.95;;;;;;;10.19;62.37;100014.69;5034180;28;20417;-74
2022/09/04 01:35:03;;;;;;;6.40;2.70;;;;;;;10.16;62.37;100015.31;5047029;28;20447;-70
2022/09/04 01:37:46;;;;;;;7.78;3.70;;;;;;;10.18;62.79;100015.00;5053486;28;20511;-71
2022/09/04 01:40:52;;;;;;;8.13;4.15;;;;;;;10.14;62.60;100020.41;5053448;28;20144;-69
2022/09/04 01:43:21;;;;;;;9.52;4.68;;;;;;;10.12;63.37;100008.78;5070030;28;20127;-73
2022/09/04 01:46:09;;;;;;;8.85;5.60;;;;;;;10.16;63.13;100011.75;5074177;28;20040;-73
2022/09/04 01:48:39;;;;;;;10.65;4.78;;;;;;;10.10;62.76;100021.38;5073062;28;20048;-73
2022/09/04 01:51:23;;;;;;;8.80;4.30;;;;;;;10.03;63.15;100009.81;5073313;28;20511;-69
2022/09/04 01:54:23;;;;;;;12.30;4.38;;;;;;;10.00;63.58;100002.13;5054868;28;20151;-73
2022/09/04 01:56:59;;;;;;;8.55;3.80;;;;;;;9.94;63.72;100011.72;5072831;28;20147;-70
2022/09/04 01:59:35;;;;;;;8.65;4.07;;;;;;;9.95;63.38;100007.81;5073422;28;20482;-74
2022/09/04 02:02:12;;;;;;;11.13;3.95;;;;;;;9.92;63.55;100000.13;5072987;28;20057;-73
2022/09/04 02:05:02;;;;;;;7.25;4.25;;;;;;;9.90;64.11;99996.84;5072954;28;20515;-73
2022/09/04 02:07:39;;;;;;;9.80;3.65;;;;;;;9.83;64.23;100000.06;5072907;28;20517;-69
2022/09/04 02:10:34;;;;;;;7.57;3.50;;;;;;;9.83;63.35;100002.03;5063059;28;20420;-69
2022/09/04 02:13:16;;;;;;;11.45;3.53;;;;;;;9.80;63.96;99991.56;5033179;28;20427;-74
2022/09/04 02:15:52;;;;;;;5.68;3.30;;;;;;;9.81;63.63;99999.56;5032982;28;20049;-70
2022/09/04 02:19:02;;;;;;;6.78;3.15;;;;;;;9.84;64.31;99996.16;5033542;28;20045;-70
2022/09/04 02:21:35;;;;;;;;;;;;;;;9.73;64.40;99991.97;5037180;28;20488;-69
2022/09/04 02:24:42;;;;;;;10.88;3.42;;;;;;;9.74;63.43;99987.25;5052805;28;20281;-70
2022/09/04 02:27:20;;;;;;;8.85;3.47;;;;;;;9.75;64.45;99988.88;5052934;28;20063;-72
2022/09/04 02:30:05;;;;;;;6.30;3.13;;;;;;;9.76;63.82;99993.31;5052495;28;20072;-69
2022/09/04 02:32:44;;;;;;;10.07;3.42;;;;;;;9.75;63.90;99988.88;5052168;28;20055;-75
2022/09/04 02:35:18;;;;;;;6.37;2.80;;;;;;;9.76;64.30;99996.06;5052531;28;20049;-67
2022/09/04 02:38:19;;;;;;;7.53;3.05;;;;;;;9.76;63.52;100007.19;5052508;28;20646;-67
2022/09/04 02:40:51;;;;;;;8.95;3.22;;;;;;;9.75;64.19;100000.00;5052856;28;20564;-72
2022/09/04 02:43:38;;;;;;;5.70;2.92;;;;;;;9.73;64.55;100003.09;5018147;28;20061;-67
2022/09/04 02:46:18;;;;;;;6.13;2.97;;;;;;;9.70;64.62;100002.91;5033149;28;20042;-67
2022/09/04 02:49:06;;;;;;;7.63;2.88;;;;;;;9.66;64.52;100004.66;5037055;28;20053;-71
2022/09/04 02:52:00;;;;;;;7.60;3.15;;;;;;;9.67;64.39;100007.13;5019105;28;20060;-68
2022/09/04 02:54:47;;;;;;;6.97;3.53;;;;;;;9.68;64.58;100016.31;5036854;28;20520;-71
2022/09/04 02:57:14;;;;;;;6.25;3.42;;;;;;;9.66;64.48;100010.22;5036484;28;20053;-66
2022/09/04 03:00:18;;;;;;;5.18;2.72;;;;;;;9.64;64.26;100009.72;5036312;28;20053;-74
2022/09/04 03:03:05;;;;;;;6.63;3.53;;;;;;;9.61;65.03;100015.91;5036041;28;20052;-73
2022/09/04 03:05:58;;;;;;;6.53;3.47;;;;;;;9.58;64.93;100016.53;5037088;28;20599;-71
2022/09/04 03:09:03;;;;;;;6.20;3.50;;;;;;;9.55;64.97;100025.50;5036679;28;20049;-73
2022/09/04 03:11:39;;;;;;;10.98;4.20;;;;;;;9.45;65.22;100020.19;5045852;28;20067;-67
2022/09/04 03:14:23;;;;;;;10.05;4.00;;;;;;;9.46;65.03;100022.66;5056103;28;20053;-67
2022/09/04 03:17:19;;;;;;;7.07;3.38;;;;;;;9.47;64.71;100020.72;5056490;28;20083;-67
2022/09/04 03:19:55;;;;;;;6.75;3.58;;;;;;;9.49;65.42;100024.81;5056337;28;20053;-68
2022/09/04 03:22:41;;;;;;;6.85;3.80;;;;;;;9.48;64.78;100017.63;5038119;28;20512;-66
2022/09/04 03:25:26;;;;;;;6.40;3.58;;;;;;;9.49;65.62;100018.41;5055564;28;20508;-68
2022/09/04 03:27:53;;;;;;;9.63;3.45;;;;;;;9.51;65.05;100018.94;5056031;28;20045;-68
2022/09/04 03:30:20;;;;;;;6.80;3.65;;;;;;;9.53;64.99;100025.00;5056095;28;20048;-68
2022/09/04 03:33:28;;;;;;;5.88;2.95;;;;;;;9.49;65.16;100018.41;5038302;28;20076;-68
2022/09/04 03:36:01;;;;;;;7.70;3.53;;;;;;;9.52;64.59;100012.22;5026190;28;20056;-67
2022/09/04 03:38:40;;;;;;;10.48;3.05;;;;;;;9.58;64.80;100010.97;5055668;28;20049;-67
2022/09/04 03:41:41;;;;;;;6.38;2.67;;;;;;;9.64;64.85;100013.31;5055617;28;20045;-68
2022/09/04 03:44:17;;;;;;;7.35;2.92;;;;;;;9.69;64.97;100004.88;5018436;28;20050;-68
2022/09/04 03:47:17;;;;;;;7.00;2.97;;;;;;;9.80;64.60;100013.78;5035623;28;20564;-67
2022/09/04 03:49:51;;;;;;;7.82;3.65;;;;;;;9.79;64.13;100007.38;5035734;28;20060;-68
2022/09/04 03:52:44;;;;;;;5.43;2.75;;;;;;;9.82;64.40;100011.47;5035147;28;20072;-69
2022/09/04 03:55:38;;;;;;;5.95;3.03;;;;;;;9.88;64.40;100013.00;5035227;28;20531;-67
2022/09/04 03:58:37;;;;;;;7.72;3.40;;;;;;;9.90;63.76;100013.50;5035198;28;20411;-68
2022/09/04 04:01:28;;;;;;;8.57;3.45;;;;;;;9.89;64.24;100012.69;5035425;28;20050;-68
2022/09/04 04:04:14;;;;;;;8.38;2.97;;;;;;;9.93;63.95;100012.88;5035384;28;20056;-67
2022/09/04 04:06:50;;;;;;;6.30;3.70;;;;;;;9.96;63.71;100015.84;5035123;28;20541;-68
2022/09/04 04:09:25;;;;;;;6.85;2.83;;;;;;;9.95;63.78;100016.16;5048520;28;20049;-67
2022/09/04 04:12:11;;;;;;;9.68;3.88;;;;;;;9.95;64.28;100016.97;5054898;28;20508;-68
2022/09/04 04:15:02;;;;;;;7.78;2.70;;;;;;;9.91;63.96;100015.97;5055612;28;20052;-67
2022/09/04 04:17:35;;;;;;;11.13;3.08;;;;;;;9.92;63.78;100017.59;5054794;28;20045;-68
2022/09/04 04:20:21;;;;;;;4.15;2.50;;;;;;;9.94;63.70;100014.50;5054484;28;20048;-68
2022/09/04 04:22:56;;;;;;;5.55;2.75;;;;;;;9.97;63.76;100011.09;5054713;28;20052;-68
2022/09/04 04:25:32;;;;;;;6.43;2.35;;;;;;;10.05;62.56;100015.88;5054824;28;20045;-68
2022/09/04 04:28:58;;;;;;;4.93;2.20;;;;;;;10.12;62.58;100011.56;5036548;28;20056;-68
2022/09/04 04:31:46;;;;;;;5.13;2.78;;;;;;;10.16;62.17;100009.78;4993819;28;20054;-69
2022/09/04 04:34:32;;;;;;;5.63;2.30;;;;;;;10.20;62.41;100007.19;4977249;28;20050;-69
2022/09/04 04:37:23;;;;;;;4.35;2.13;;;;;;;10.25;61.95;100004.28;4992942;28;20052;-69
2022/09/04 04:40:05;;;;;;;7.38;1.85;;;;;;;10.28;61.58;100004.47;4993387;28;20062;-69
2022/09/04 04:42:56;;;;;;;5.68;2.72;;;;;;;10.30;61.89;100007.72;4986131;28;20058;-69
2022/09/04 04:48:35;;;;;;;6.40;2.63;;;;;;;10.46;60.98;99999.78;5012479;28;20064;-69
2022/09/04 04:51:31;;;;;;;8.02;2.00;;;;;;;10.50;60.04;100000.78;5012346;28;20057;-69
2022/09/04 04:54:06;;;;;;;5.85;2.50;;;;;;;10.54;60.23;100012.94;5012324;28;20449;-69
2022/09/04 04:56:35;;;;;;;4.97;2.50;;;;;;;10.60;59.35;100003.28;5012312;28;20066;-69
2022/09/04 04:59:19;;;;;;;7.82;2.05;;;;;;;10.70;59.47;100011.34;5012600;28;20064;-69
2022/09/04 05:02:07;;;;;;;4.70;1.80;;;;;;;10.77;59.48;100006.13;5012135;28;20054;-70
2022/09/04 05:04:56;;;;;;;9.68;2.47;;;;;;;10.85;58.90;100010.91;5024475;28;20065;-69
2022/09/04 05:07:51;;;;;;;4.20;2.00;;;;;;;10.91;59.02;100006.81;5052835;28;20569;-69
2022/09/04 05:10:29;;;;;;;7.15;1.90;;;;;;;10.99;57.99;100004.03;5043356;28;20440;-70
2022/09/04 05:13:17;;;;;;;2.75;1.90;;;;;;;11.05;57.48;100015.88;5034029;28;20156;-70
2022/09/04 05:15:59;;;;;;;3.85;1.77;;;;;;;11.11;57.29;100009.00;5033980;28;20038;-69
2022/09/04 05:18:38;;;;;;;3.90;1.80;;;;;;;11.17;56.98;100009.66;5034195;28;20103;-70
2022/09/04 05:21:16;;;;;;;8.00;2.15;;;;;;;11.24;57.05;100010.81;5034254;28;20128;-69
2022/09/04 05:23:51;;;;;;;7.78;1.95;;;;;;;11.38;56.97;100010.66;5052324;28;20052;-69
2022/09/04 05:26:31;;;;;;;5.30;2.40;;;;;;;11.43;56.25;100002.16;5053641;28;20037;-69
2022/09/04 05:29:16;;;;;;;6.50;1.90;;;;;;;11.53;55.95;100008.22;5053993;28;20060;-70
2022/09/04 05:31:52;;;;;;;6.50;2.15;;;;;;;11.67;55.75;100013.66;5053514;28;20047;-70
2022/09/04 05:34:19;;;;;;;3.88;1.88;;;;;;;11.91;54.69;100013.97;5036324;28;20051;-69
2022/09/04 05:37:07;;;;;;;6.03;1.42;;;;;;;11.96;54.87;100006.25;5035740;28;20045;-70
2022/09/04 05:39:55;;;;;;;3.78;1.40;;;;;;;11.98;53.77;100017.06;5053737;28;20041;-69
2022/09/04 05:43:03;;;;;;;3.65;1.27;;;;;;;12.02;53.01;100018.84;5044531;28;20053;-69
2022/09/04 05:46:07;;;;;;;3.40;1.27;;;;;;;12.22;53.04;100015.38;5033466;28;20152;-69
2022/09/04 05:48:43;;;;;;;2.65;1.35;;;;;;;12.34;52.49;100007.16;5033433;28;20053;-69
2022/09/04 05:51:28;;;;;;;1.23;0.90;;;;;;;12.60;51.30;100019.03;5033253;28;20053;-70
2022/09/04 05:54:24;;;;;;;2.90;1.10;;;;;;;12.71;50.55;100025.06;5033348;28;20049;-69
2022/09/04 05:57:30;;;;;;;2.40;1.73;;;;;;;12.80;50.18;100015.47;5006517;28;20628;-69
2022/09/04 05:59:57;;;;;;;2.50;1.42;;;;;;;12.91;50.06;100018.75;5032912;28;20045;-69
2022/09/04 06:02:58;;;;;;;4.30;1.30;;;;;;;13.73;48.36;100020.81;5033052;28;20055;-70
2022/09/04 06:05:46;;;;;;;3.33;0.80;;;;;;;14.64;45.87;100013.00;5033072;28;20513;-69
2022/09/04 06:08:33;;;;;;;4.47;1.27;;;;;;;16.50;42.26;100017.97;5032985;28;20115;-69
2022/09/04 06:11:23;;;;;;;2.22;0.95;;;;;;;17.68;39.63;100014.50;5032928;28;20408;-70
2022/09/04 06:13:49;;;;;;;;;;;;;;;17.09;40.84;100024.34;5045158;28;20083;-69
2022/09/04 06:16:26;;;;;;;4.47;1.00;;;;;;;17.96;39.56;100028.38;5052897;28;19933;-68
2022/09/04 06:19:37;;;;;;;3.22;1.25;;;;;;;21.06;33.74;100026.34;5052706;28;20084;-70
2022/09/04 06:22:22;;;;;;;2.13;1.02;;;;;;;20.13;34.44;100025.72;5024322;28;20056;-69
2022/09/04 06:25:12;;;;;;;2.30;1.10;;;;;;;19.59;35.26;100019.72;5034495;28;20136;-68
2022/09/04 06:27:59;;;;;;;2.78;0.82;;;;;;;18.72;36.16;100019.06;5052404;28;20052;-69
2022/09/04 06:30:42;;;;;;;1.92;0.85;;;;;;;19.03;35.82;100025.25;5052342;28;20045;-69
2022/09/04 06:33:35;;;;;;;2.45;0.90;;;;;;;20.13;33.80;100025.72;5032621;28;20440;-70
2022/09/04 06:36:04;;;;;;;2.17;1.00;;;;;;;20.50;33.31;100025.75;5033110;28;20049;-69
2022/09/04 06:38:40;;;;;;;3.03;1.10;;;;;;;19.74;34.00;100028.00;5032179;28;20053;-68
2022/09/04 06:41:19;;;;;;;5.45;0.82;;;;;;;18.72;34.58;100025.53;5032138;28;20420;-67
2022/09/04 06:43:58;;;;;;;2.70;0.90;;;;;;;18.08;34.93;100028.25;5032835;28;20054;-69
2022/09/04 06:46:39;;;;;;;6.20;1.10;;;;;;;17.64;35.44;100024.06;5014414;28;20045;-68
2022/09/04 06:49:34;;;;;;;4.78;0.80;;;;;;;16.73;36.91;100024.63;5032510;28;20045;-68
2022/09/04 06:52:21;;;;;;;2.40;0.90;;;;;;;16.15;38.08;100024.22;5032087;28;20064;-69
2022/09/04 06:55:09;;;;;;;5.35;1.10;;;;;;;15.72;38.77;100015.72;5032730;28;20046;-69
2022/09/04 06:57:51;;;;;;;3.95;1.10;;;;;;;15.36;39.07;100018.56;5042167;28;20093;-69
2022/09/04 07:00:18;;;;;;;3.03;1.05;;;;;;;15.15;39.83;100029.09;5052391;28;20048;-68
2022/09/04 07:02:55;;;;;;;4.57;0.90;;;;;;;14.98;39.86;100023.72;5052260;28;20052;-69
2022/09/04 07:05:31;;;;;;;1.65;0.85;;;;;;;14.75;40.11;100022.56;5052478;28;20139;-68
2022/09/04 07:08:04;;;;;;;5.05;1.10;;;;;;;14.85;39.65;100022.09;5051883;28;20098;-68
2022/09/04 07:11:23;;;;;;;3.10;1.10;;;;;;;14.85;39.92;100030.50;5052229;28;20059;-69
2022/09/04 07:14:06;;;;;;;9.25;1.20;;;;;;;14.72;40.55;100025.25;5049517;28;20057;-68
2022/09/04 07:17:13;;;;;;;2.13;0.90;;;;;;;14.65;40.51;100021.03;5051936;28;20056;-67
2022/09/04 07:20:17;;;;;;;8.20;0.90;;;;;;;14.68;40.25;100017.53;5052184;28;20144;-68
2022/09/04 07:23:08;;;;;;;1.40;0.80;;;;;;;14.95;39.62;100010.44;5032159;28;20351;-68
2022/09/04 07:26:08;;;;;;;3.25;0.95;;;;;;;14.87;39.95;100002.97;5031818;28;20041;-68
2022/09/04 07:28:46;;;;;;;8.40;1.38;;;;;;;14.78;39.86;100013.47;5014976;28;20056;-69
2022/09/04 07:31:51;;;;;;;1.58;0.88;;;;;;;14.48;40.50;100012.03;5031848;28;20101;-68
2022/09/04 07:34:30;;;;;;;2.15;0.90;;;;;;;14.57;39.93;100012.75;5017783;28;20060;-68
2022/09/04 07:37:01;;;;;;;1.10;0.80;;;;;;;14.56;39.87;99997.09;5035502;28;20049;-69
2022/09/04 07:39:38;;;;;;;5.78;1.13;;;;;;;14.67;39.49;99995.50;5035978;28;20049;-69
2022/09/04 07:42:24;;;;;;;3.90;0.80;;;;;;;16.26;37.02;99991.63;5035558;28;20050;-69
2022/09/04 07:45:02;;;;;;;3.60;0.80;;;;;;;17.42;35.15;99999.41;5035651;28;20073;-69
2022/09/04 07:47:41;;;;;;;3.70;0.70;;;;;;;17.32;35.27;100003.59;5035196;28;20044;-69
2022/09/04 07:50:14;;;;;;;1.98;1.08;;;;;;;16.85;36.00;99988.81;5035300;28;20050;-69
2022/09/04 07:52:53;;;;;;;1.50;0.70;;;;;;;16.95;35.47;99990.25;5035209;28;20064;-69
2022/09/04 07:55:32;;;;;;;7.15;2.00;;;;;;;17.41;34.69;99992.16;5035429;28;20500;-69
2022/09/04 07:58:30;;;;;;;3.10;0.80;;;;;;;17.12;34.17;99987.88;5034961;28;20164;-69
2022/09/04 08:01:06;;;;;;;1.55;0.75;;;;;;;17.34;34.05;99994.78;5035397;28;20366;-67
2022/09/04 08:04:01;;;;;;;1.75;0.70;;;;;;;17.69;33.18;99981.56;5035743;28;20061;-69
2022/09/04 08:06:48;;;;;;;1.08;0.68;;;;;;;19.10;31.29;99991.50;5035098;28;20073;-69
2022/09/04 08:09:24;;;;;;;4.63;0.75;;;;;;;20.70;29.10;99979.94;5035237;28;20071;-68
2022/09/04 08:12:18;;;;;;;1.40;0.85;;;;;;;19.70;30.23;99976.34;5052871;28;20045;-70
2022/09/04 08:14:59;;;;;;;3.40;0.95;;;;;;;21.56;27.77;99974.56;5054696;28;20049;-70
2022/09/04 08:17:41;;;;;;;1.85;0.73;;;;;;;20.02;29.55;99977.53;5036657;28;20048;-68
2022/09/04 08:20:29;;;;;;;1.75;0.77;;;;;;;21.81;27.52;99978.38;5054786;28;20049;-68
2022/09/04 08:23:30;;;;;;;1.95;1.00;;;;;;;29.22;19.30;99954.66;5054397;28;20425;-70
2022/09/04 08:26:10;;;;;;;1.80;0.77;;;;;;;30.85;17.50;99954.47;5055873;28;20045;-71
2022/09/04 08:28:55;;;;;;;1.17;0.57;;;;;;;30.35;17.67;99957.28;5054614;28;20067;-71
2022/09/04 08:31:31;;;;;;;2.70;0.80;;;;;;;26.15;21.21;99960.97;5054382;28;20076;-70
2022/09/04 08:34:19;;;;;;;2.00;0.90;;;;;;;23.09;23.90;99956.41;5054500;28;20049;-71
2022/09/04 08:37:14;;;;;;;1.23;0.65;;;;;;;20.96;26.39;99956.38;5054535;28;20051;-72
2022/09/04 08:39:52;;;;;;;5.18;0.95;;;;;;;19.57;27.73;99962.84;5054505;28;20051;-72
2022/09/04 08:42:50;;;;;;;1.23;0.80;;;;;;;21.89;25.26;99957.38;5054535;28;20457;-70
2022/09/04 08:45:45;;;;;;;2.78;0.80;;;;;;;29.59;17.85;99951.22;5053539;28;20052;-70
2022/09/04 08:48:31;;;;;;;2.50;1.58;;;;;;;34.75;13.48;99943.09;5036089;28;20473;-71
2022/09/04 08:51:33;;;;;;;1.60;0.70;;;;;;;37.17;11.78;99939.94;5054582;28;20048;-70
2022/09/04 08:54:21;;;;;;;2.17;0.80;;;;;;;38.84;10.96;99933.56;5054425;28;20052;-72
2022/09/04 08:57:26;;;;;;;6.68;0.93;;;;;;;40.79;9.71;99928.13;5054173;28;20052;-72
2022/09/04 09:00:06;;;;;;;5.75;1.00;;;;;;;41.77;9.19;99929.28;5053996;28;20078;-70
2022/09/04 09:02:55;;;;;;;1.63;0.90;;;;;;;36.40;12.12;99934.44;5053881;28;20243;-73
2022/09/04 09:05:38;;;;;;;1.10;0.80;;;;;;;38.92;10.09;99934.69;5053615;28;20056;-72
2022/09/04 09:08:28;;;;;;;1.63;0.90;;;;;;;40.31;8.79;99921.69;5053640;28;20053;-71
2022/09/04 09:11:15;;;;;;;1.35;0.85;;;;;;;38.06;9.84;99910.81;5043064;28;20440;-71
2022/09/04 09:14:22;;;;;;;1.85;0.80;;;;;;;36.94;10.38;99915.59;5054377;28;20049;-71
2022/09/04 09:17:15;;;;;;;5.78;0.80;;;;;;;38.19;9.83;99908.34;5028861;28;20053;-73
2022/09/04 09:20:06;;;;;;;1.98;1.00;;;;;;;38.09;9.41;99913.50;5054134;28;20095;-70
2022/09/04 09:22:39;;;;;;;2.25;0.82;;;;;;;40.50;8.67;99922.78;5053770;28;20056;-73
2022/09/04 09:25:19;;;;;;;1.05;0.75;;;;;;;43.05;6.91;99910.34;5053974;28;20095;-71
2022/09/04 09:28:17;;;;;;;4.82;1.48;;;;;;;45.28;6.09;99919.22;5053452;28;20454;-75
2022/09/04 09:30:59;;;;;;;0.95;0.80;;;;;;;46.33;5.62;99917.84;5054617;28;20499;-69
2022/09/04 09:34:04;;;;;;;5.35;0.90;;;;;;;44.31;6.42;99918.97;5073341;28;20052;-70
2022/09/04 09:36:43;;;;;;;2.42;0.80;;;;;;;42.60;7.19;99923.78;5073616;28;20059;-73
2022/09/04 09:39:56;;;;;;;2.45;0.60;;;;;;;38.31;8.31;99919.56;5073563;28;20055;-72
2022/09/04 09:42:42;;;;;;;1.17;0.63;;;;;;;32.54;12.15;99926.16;5037448;28;20491;-71
2022/09/04 09:45:30;;;;;;;1.80;0.70;;;;;;;29.01;14.40;99920.00;5073436;28;20048;-71
2022/09/04 09:48:12;;;;;;;2.55;0.60;;;;;;;26.82;16.51;99927.81;5073066;28;20127;-70
2022/09/04 09:50:48;;;;;;;1.38;0.68;;;;;;;24.88;17.97;99917.91;5073176;28;20048;-70
2022/09/04 09:53:33;;;;;;;3.05;0.70;;;;;;;23.73;19.09;99922.22;5072980;28;20056;-71
2022/09/04 09:56:38;;;;;;;1.20;0.73;;;;;;;22.62;20.32;99917.06;5072925;28;20053;-71
2022/09/04 09:59:36;;;;;;;1.20;0.82;;;;;;;21.82;21.10;99909.19;5068931;28;20053;-70
2022/09/04 10:02:15;;;;;;;2.35;1.08;;;;;;;21.32;22.04;99910.13;5052637;28;20053;-71
2022/09/04 10:05:17;;;;;;;2.67;1.33;;;;;;;21.12;22.21;99897.47;5052621;28;20048;-72
2022/09/04 10:08:31;;;;;;;1.17;0.73;;;;;;;21.10;22.39;99903.53;5052685;28;20095;-72
2022/09/04 10:11:35;;;;;;;1.42;0.85;;;;;;;20.82;22.76;99903.31;5052665;28;20064;-73
2022/09/04 10:14:08;;;;;;;3.17;0.88;;;;;;;20.20;23.83;99903.53;5053111;28;20057;-72
2022/09/04 10:16:59;;;;;;;1.23;0.73;;;;;;;19.68;24.29;99915.81;5034583;28;20144;-72
2022/09/04 10:19:45;;;;;;;1.13;0.63;;;;;;;19.14;25.15;99909.78;5052530;28;20144;-70
2022/09/04 10:22:18;;;;;;;2.05;0.90;;;;;;;18.67;25.91;99903.81;5052523;28;20052;-71
2022/09/04 10:25:06;;;;;;;2.95;0.80;;;;;;;18.63;26.18;99903.78;5052388;28;20055;-71
2022/09/04 10:27:57;;;;;;;3.08;0.82;;;;;;;18.82;25.75;99903.66;5052183;28;20059;-69
2022/09/04 10:30:36;;;;;;;1.77;0.90;;;;;;;18.96;25.73;99903.06;5052901;28;20087;-69
2022/09/04 10:33:34;;;;;;;1.25;0.65;;;;;;;18.65;25.97;99912.66;5015483;28;20096;-69
2022/09/04 10:36:22;;;;;;;11.50;2.05;;;;;;;18.14;26.67;99914.94;5032423;28;20045;-72
2022/09/04 10:42:35;;;;;;;1.23;0.80;;;;;;;17.37;27.46;99912.50;5032136;28;20056;-69
2022/09/04 10:45:36;;;;;;;5.78;0.98;;;;;;;17.60;27.40;99907.81;5032679;28;20501;-69
2022/09/04 10:48:24;;;;;;;2.90;0.70;;;;;;;17.81;26.96;99905.44;5018849;28;20053;-69
2022/09/04 10:51:26;;;;;;;1.38;0.80;;;;;;;17.71;27.25;99900.41;5032615;28;20060;-69
2022/09/04 10:54:24;;;;;;;3.50;1.00;;;;;;;17.54;27.29;99906.50;5032203;28;20393;-69
2022/09/04 10:57:29;;;;;;;0.90;0.70;;;;;;;17.41;27.51;99897.34;5032724;28;20042;-69
2022/09/04 11:00:07;;;;;;;3.10;0.80;;;;;;;17.44;27.35;99898.66;5032377;28;20508;-69
2022/09/04 11:02:52;;;;;;;4.68;1.20;;;;;;;17.60;26.84;99893.75;5032280;28;20063;-69
2022/09/04 11:05:43;;;;;;;3.42;0.80;;;;;;;17.79;26.47;99902.16;5032719;28;20049;-70
2022/09/04 11:08:28;;;;;;;2.83;0.90;;;;;;;17.72;26.70;99904.84;5034925;28;20041;-70
2022/09/04 11:11:16;;;;;;;0.93;0.70;;;;;;;17.50;27.15;99899.97;5041450;28;20075;-69
2022/09/04 11:13:49;;;;;;;8.25;1.05;;;;;;;17.19;27.89;99898.06;5056160;28;20515;-69
2022/09/04 11:17:04;;;;;;;1.88;0.90;;;;;;;16.94;28.27;99895.88;5055760;28;20056;-69
2022/09/04 11:19:52;;;;;;;2.45;0.70;;;;;;;16.73;28.77;99904.63;5038073;28;20478;-69
2022/09/04 11:22:19;;;;;;;4.65;0.90;;;;;;;16.65;28.88;99899.19;5036091;28;20052;-67
2022/09/04 11:24:53;;;;;;;2.38;0.90;;;;;;;16.79;28.83;99902.34;5036356;28;20053;-69
2022/09/04 11:27:46;;;;;;;1.77;0.93;;;;;;;16.86;28.61;99891.25;5035893;28;20054;-68
2022/09/04 11:30:19;;;;;;;1.60;0.77;;;;;;;16.65;29.02;99890.75;5036093;28;20531;-69
2022/09/04 11:33:10;;;;;;;2.05;1.00;;;;;;;16.76;29.15;99881.41;5053582;28;20051;-68
2022/09/04 11:35:58;;;;;;;6.28;0.80;;;;;;;17.07;28.80;99880.50;5055531;28;20052;-69
2022/09/04 11:38:55;;;;;;;3.22;1.00;;;;;;;17.33;28.47;99877.88;5055634;28;20052;-68
2022/09/04 11:41:42;;;;;;;2.40;0.98;;;;;;;17.24;28.37;99882.91;5055438;28;20041;-70
2022/09/04 11:44:24;;;;;;;1.75;0.70;;;;;;;16.98;28.72;99877.91;5055750;28;20492;-69
2022/09/04 11:47:20;;;;;;;1.55;0.80;;;;;;;17.11;28.91;99881.41;5055418;28;20049;-69
2022/09/04 11:50:27;;;;;;;1.83;1.00;;;;;;;17.46;28.68;99870.94;5026349;28;20405;-70
2022/09/04 11:53:19;;;;;;;1.90;1.00;;;;;;;17.59;28.67;99876.03;5054494;28;20443;-71
2022/09/04 11:56:14;;;;;;;1.58;0.95;;;;;;;17.50;28.72;99872.66;5038310;28;20056;-68
2022/09/04 11:59:03;;;;;;;1.45;0.90;;;;;;;17.58;28.69;99873.59;5055318;28;20045;-70
2022/09/04 12:01:40;;;;;;;2.55;1.17;;;;;;;17.49;28.83;99873.00;5021370;28;20111;-69
2022/09/04 12:04:13;;;;;;;3.05;0.90;;;;;;;17.40;28.79;99878.00;5036213;28;20400;-71
2022/09/04 12:07:14;;;;;;;3.22;1.00;;;;;;;17.46;28.75;99873.75;5035095;28;20045;-69
2022/09/04 12:10:09;;;;;;;5.10;0.70;;;;;;;17.60;27.80;99866.44;5035064;28;20045;-70
2022/09/04 12:12:45;;;;;;;4.43;0.85;;;;;;;17.62;27.69;99871.69;5034998;28;20398;-69
2022/09/04 12:16:07;;;;;;;1.40;0.90;;;;;;;17.09;28.11;99866.91;5035133;28;20055;-69
2022/09/04 12:18:58;;;;;;;1.73;0.93;;;;;;;16.63;28.68;99873.44;5011162;28;20115;-72
2022/09/04 12:21:52;;;;;;;2.17;1.15;;;;;;;16.63;28.96;99870.63;5034723;28;20054;-68
2022/09/04 12:24:38;;;;;;;4.10;1.10;;;;;;;16.63;29.43;99870.63;5017037;28;20530;-69
2022/09/04 12:27:32;;;;;;;5.53;1.70;;;;;;;16.41;29.41;99867.28;5035160;28;20107;-71
2022/09/04 12:30:22;;;;;;;9.55;0.90;;;;;;;16.14;30.04;99871.00;5034902;28;20104;-71
2022/09/04 12:33:30;;;;;;;4.95;0.90;;;;;;;16.13;30.46;99869.38;5034358;28;20049;-71
2022/09/04 12:36:18;;;;;;;6.28;0.98;;;;;;;16.24;30.43;99870.47;5034987;28;20049;-70
2022/09/04 12:39:23;;;;;;;5.63;1.15;;;;;;;16.31;30.30;99865.03;5000518;28;20061;-70
2022/09/04 12:41:59;;;;;;;2.38;1.30;;;;;;;16.42;30.23;99863.31;4997387;28;20555;-70
2022/09/04 12:45:00;;;;;;;12.57;1.38;;;;;;;16.58;29.99;99856.88;5017517;28;20055;-70
2022/09/04 12:47:50;;;;;;;1.67;1.00;;;;;;;16.54;29.87;99864.41;4997033;28;20420;-69
2022/09/04 12:50:26;;;;;;;1.17;0.80;;;;;;;16.63;29.26;99859.41;5034500;28;20046;-71
2022/09/04 12:53:18;;;;;;;1.88;0.90;;;;;;;16.64;29.52;99870.28;5045897;28;20061;-70
2022/09/04 12:56:21;;;;;;;4.35;1.00;;;;;;;16.71;29.22;99858.41;5054249;28;20136;-70
2022/09/04 12:59:29;;;;;;;1.73;0.88;;;;;;;16.72;29.12;99858.03;5049454;28;20057;-70
2022/09/04 13:02:08;;;;;;;1.90;0.80;;;;;;;16.65;29.32;99845.81;5036428;28;20048;-71
2022/09/04 13:04:38;;;;;;;2.10;0.90;;;;;;;16.99;28.90;99853.44;5054505;28;20053;-71
2022/09/04 13:07:50;;;;;;;4.05;1.05;;;;;;;17.10;28.79;99846.88;5053686;28;20059;-70
2022/09/04 13:10:32;;;;;;;1.15;0.70;;;;;;;16.88;29.49;99841.13;5051117;28;20433;-69